sensor_id;sensor_type;location;lat;lon;timestamp;temperature;humidity
957;DHT22;465;48.802;9.224;2022-09-17T00:00:33;12.50;99.90
957;DHT22;465;48.802;9.224;2022-09-17T00:03:00;12.50;99.90
957;DHT22;465;48.802;9.224;2022-09-17T00:05:28;12.60;99.90
957;DHT22;465;48.802;9.224;2022-09-17T00:07:54;12.50;99.90
957;DHT22;465;48.802;9.224;2022-09-17T00:10:21;12.50;99.90
957;DHT22;465;48.802;9.224;2022-09-17T00:12:49;12.60;99.90
957;DHT22;465;48.802;9.224;2022-09-17T00:15:16;12.60;99.90
957;DHT22;465;48.802;9.224;2022-09-17T00:17:43;12.50;99.90
957;DHT22;465;48.802;9.224;2022-09-17T00:20:10;12.60;99.90
957;DHT22;465;48.802;9.224;2022-09-17T00:22:38;12.60;99.90
957;DHT22;465;48.802;9.224;2022-09-17T00:25:06;12.50;99.90
957;DHT22;465;48.802;9.224;2022-09-17T00:27:33;12.50;99.90
957;DHT22;465;48.802;9.224;2022-09-17T00:30:00;12.40;99.90
957;DHT22;465;48.802;9.224;2022-09-17T00:32:27;12.40;99.90
957;DHT22;465;48.802;9.224;2022-09-17T00:34:54;12.40;99.90
957;DHT22;465;48.802;9.224;2022-09-17T00:37:21;12.30;99.90
957;DHT22;465;48.802;9.224;2022-09-17T00:39:49;12.30;99.90
957;DHT22;465;48.802;9.224;2022-09-17T00:42:16;12.30;99.90
957;DHT22;465;48.802;9.224;2022-09-17T00:44:47;12.30;99.90
957;DHT22;465;48.802;9.224;2022-09-17T00:47:21;12.30;99.90
957;DHT22;465;48.802;9.224;2022-09-17T00:49:50;12.40;99.90
957;DHT22;465;48.802;9.224;2022-09-17T00:52:22;12.40;99.90
957;DHT22;465;48.802;9.224;2022-09-17T00:54:57;12.50;99.90
957;DHT22;465;48.802;9.224;2022-09-17T00:57:25;12.50;99.90
957;DHT22;465;48.802;9.224;2022-09-17T00:59:53;12.50;99.90
957;DHT22;465;48.802;9.224;2022-09-17T01:02:19;12.40;99.90
957;DHT22;465;48.802;9.224;2022-09-17T01:04:46;12.30;99.90
957;DHT22;465;48.802;9.224;2022-09-17T01:07:22;12.30;99.90
957;DHT22;465;48.802;9.224;2022-09-17T01:09:56;12.20;99.90
957;DHT22;465;48.802;9.224;2022-09-17T01:12:45;12.10;99.90
957;DHT22;465;48.802;9.224;2022-09-17T01:15:22;12.00;99.90
957;DHT22;465;48.802;9.224;2022-09-17T01:17:58;11.90;99.90
957;DHT22;465;48.802;9.224;2022-09-17T01:20:51;11.90;99.90
957;DHT22;465;48.802;9.224;2022-09-17T01:23:49;11.90;99.90
957;DHT22;465;48.802;9.224;2022-09-17T01:29:29;11.80;99.90
957;DHT22;465;48.802;9.224;2022-09-17T01:32:06;11.80;99.90
957;DHT22;465;48.802;9.224;2022-09-17T01:34:40;11.70;99.90
957;DHT22;465;48.802;9.224;2022-09-17T01:37:13;11.70;99.90
957;DHT22;465;48.802;9.224;2022-09-17T01:39:45;11.70;99.90
957;DHT22;465;48.802;9.224;2022-09-17T01:42:17;11.60;99.90
957;DHT22;465;48.802;9.224;2022-09-17T01:44:53;11.70;99.90
957;DHT22;465;48.802;9.224;2022-09-17T01:47:26;11.80;99.90
957;DHT22;465;48.802;9.224;2022-09-17T01:50:00;11.80;99.90
957;DHT22;465;48.802;9.224;2022-09-17T01:52:31;11.80;99.90
957;DHT22;465;48.802;9.224;2022-09-17T01:55:02;11.80;99.90
957;DHT22;465;48.802;9.224;2022-09-17T01:57:33;11.80;99.90
957;DHT22;465;48.802;9.224;2022-09-17T02:00:04;11.80;99.90
957;DHT22;465;48.802;9.224;2022-09-17T02:02:37;11.90;99.90
957;DHT22;465;48.802;9.224;2022-09-17T02:05:10;12.10;99.90
957;DHT22;465;48.802;9.224;2022-09-17T02:07:40;12.20;99.90
957;DHT22;465;48.802;9.224;2022-09-17T02:10:10;12.20;99.90
957;DHT22;465;48.802;9.224;2022-09-17T02:12:40;12.20;99.90
957;DHT22;465;48.802;9.224;2022-09-17T02:15:09;12.10;99.90
957;DHT22;465;48.802;9.224;2022-09-17T02:17:43;12.10;99.90
957;DHT22;465;48.802;9.224;2022-09-17T02:20:12;12.00;99.90
957;DHT22;465;48.802;9.224;2022-09-17T02:22:42;12.00;99.90
957;DHT22;465;48.802;9.224;2022-09-17T02:25:14;12.00;99.90
957;DHT22;465;48.802;9.224;2022-09-17T02:27:50;12.10;99.90
957;DHT22;465;48.802;9.224;2022-09-17T02:30:18;12.00;99.90
957;DHT22;465;48.802;9.224;2022-09-17T02:32:46;11.90;99.90
957;DHT22;465;48.802;9.224;2022-09-17T02:35:14;11.90;99.90
957;DHT22;465;48.802;9.224;2022-09-17T02:37:41;11.80;99.90
957;DHT22;465;48.802;9.224;2022-09-17T02:40:09;11.80;99.90
957;DHT22;465;48.802;9.224;2022-09-17T02:42:52;11.80;99.90
957;DHT22;465;48.802;9.224;2022-09-17T02:45:32;11.90;99.90
957;DHT22;465;48.802;9.224;2022-09-17T02:51:15;11.90;99.90
957;DHT22;465;48.802;9.224;2022-09-17T02:53:54;11.90;99.90
957;DHT22;465;48.802;9.224;2022-09-17T02:56:33;11.90;99.90
957;DHT22;465;48.802;9.224;2022-09-17T02:59:08;11.90;99.90
957;DHT22;465;48.802;9.224;2022-09-17T03:01:41;12.00;99.90
957;DHT22;465;48.802;9.224;2022-09-17T03:04:14;12.10;99.90
957;DHT22;465;48.802;9.224;2022-09-17T03:06:44;12.00;99.90
957;DHT22;465;48.802;9.224;2022-09-17T03:09:12;12.00;99.90
957;DHT22;465;48.802;9.224;2022-09-17T03:11:39;12.00;99.90
957;DHT22;465;48.802;9.224;2022-09-17T03:14:06;11.90;99.90
957;DHT22;465;48.802;9.224;2022-09-17T03:16:33;11.90;99.90
957;DHT22;465;48.802;9.224;2022-09-17T03:19:00;11.80;99.90
957;DHT22;465;48.802;9.224;2022-09-17T03:21:28;11.80;99.90
957;DHT22;465;48.802;9.224;2022-09-17T03:23:55;11.80;99.90
957;DHT22;465;48.802;9.224;2022-09-17T03:26:24;11.70;99.90
957;DHT22;465;48.802;9.224;2022-09-17T03:28:51;11.70;99.90
957;DHT22;465;48.802;9.224;2022-09-17T03:31:18;11.60;99.90
957;DHT22;465;48.802;9.224;2022-09-17T03:33:44;11.50;99.90
957;DHT22;465;48.802;9.224;2022-09-17T03:36:11;11.50;99.90
957;DHT22;465;48.802;9.224;2022-09-17T03:38:39;11.50;99.90
957;DHT22;465;48.802;9.224;2022-09-17T03:41:06;11.60;99.90
957;DHT22;465;48.802;9.224;2022-09-17T03:43:33;11.70;99.90
957;DHT22;465;48.802;9.224;2022-09-17T03:46:00;11.70;99.90
957;DHT22;465;48.802;9.224;2022-09-17T03:48:27;11.70;99.90
957;DHT22;465;48.802;9.224;2022-09-17T03:50:54;11.70;99.90
957;DHT22;465;48.802;9.224;2022-09-17T03:53:21;11.60;99.90
957;DHT22;465;48.802;9.224;2022-09-17T03:55:49;11.50;99.90
957;DHT22;465;48.802;9.224;2022-09-17T03:58:16;11.60;99.90
957;DHT22;465;48.802;9.224;2022-09-17T04:00:43;11.50;99.90
957;DHT22;465;48.802;9.224;2022-09-17T04:03:10;11.40;99.90
957;DHT22;465;48.802;9.224;2022-09-17T04:05:37;11.30;99.90
957;DHT22;465;48.802;9.224;2022-09-17T04:08:03;11.30;99.90
957;DHT22;465;48.802;9.224;2022-09-17T04:10:30;11.20;99.90
957;DHT22;465;48.802;9.224;2022-09-17T04:13:02;11.20;99.90
957;DHT22;465;48.802;9.224;2022-09-17T04:15:32;11.20;99.90
957;DHT22;465;48.802;9.224;2022-09-17T04:17:59;11.20;99.90
957;DHT22;465;48.802;9.224;2022-09-17T04:20:26;11.20;99.90
957;DHT22;465;48.802;9.224;2022-09-17T04:22:55;11.20;99.90
957;DHT22;465;48.802;9.224;2022-09-17T04:25:25;11.20;99.90
957;DHT22;465;48.802;9.224;2022-09-17T04:27:52;11.20;99.90
957;DHT22;465;48.802;9.224;2022-09-17T04:30:20;11.10;99.90
957;DHT22;465;48.802;9.224;2022-09-17T04:32:47;11.00;99.90
957;DHT22;465;48.802;9.224;2022-09-17T04:35:14;11.10;99.90
957;DHT22;465;48.802;9.224;2022-09-17T04:37:53;11.10;99.90
957;DHT22;465;48.802;9.224;2022-09-17T04:40:20;11.30;99.90
957;DHT22;465;48.802;9.224;2022-09-17T04:42:47;11.40;99.90
957;DHT22;465;48.802;9.224;2022-09-17T04:45:14;11.50;99.90
957;DHT22;465;48.802;9.224;2022-09-17T04:47:42;11.50;99.90
957;DHT22;465;48.802;9.224;2022-09-17T04:50:08;11.50;99.90
957;DHT22;465;48.802;9.224;2022-09-17T04:52:36;11.60;99.90
957;DHT22;465;48.802;9.224;2022-09-17T04:55:03;11.70;99.90
957;DHT22;465;48.802;9.224;2022-09-17T04:57:30;11.60;99.90
957;DHT22;465;48.802;9.224;2022-09-17T04:59:56;11.70;99.90
957;DHT22;465;48.802;9.224;2022-09-17T05:02:23;11.70;99.90
957;DHT22;465;48.802;9.224;2022-09-17T05:04:51;11.80;99.90
957;DHT22;465;48.802;9.224;2022-09-17T05:07:18;11.80;99.90
957;DHT22;465;48.802;9.224;2022-09-17T05:09:45;11.80;99.90
957;DHT22;465;48.802;9.224;2022-09-17T05:12:11;11.80;99.90
957;DHT22;465;48.802;9.224;2022-09-17T05:14:38;11.80;99.90
957;DHT22;465;48.802;9.224;2022-09-17T05:17:05;11.70;99.90
957;DHT22;465;48.802;9.224;2022-09-17T05:19:31;11.70;99.90
957;DHT22;465;48.802;9.224;2022-09-17T05:22:00;11.70;99.90
957;DHT22;465;48.802;9.224;2022-09-17T05:26:59;11.70;99.90
957;DHT22;465;48.802;9.224;2022-09-17T05:29:26;11.60;99.90
957;DHT22;465;48.802;9.224;2022-09-17T05:31:52;11.60;99.90
957;DHT22;465;48.802;9.224;2022-09-17T05:34:19;11.60;99.90
957;DHT22;465;48.802;9.224;2022-09-17T05:36:46;11.60;99.90
957;DHT22;465;48.802;9.224;2022-09-17T05:39:14;11.50;99.90
957;DHT22;465;48.802;9.224;2022-09-17T05:41:41;11.50;99.90
957;DHT22;465;48.802;9.224;2022-09-17T05:44:08;11.50;99.90
957;DHT22;465;48.802;9.224;2022-09-17T05:46:35;11.50;99.90
957;DHT22;465;48.802;9.224;2022-09-17T05:49:02;11.50;99.90
957;DHT22;465;48.802;9.224;2022-09-17T05:51:29;11.50;99.90
957;DHT22;465;48.802;9.224;2022-09-17T05:53:56;11.40;99.90
957;DHT22;465;48.802;9.224;2022-09-17T05:56:24;11.50;99.90
957;DHT22;465;48.802;9.224;2022-09-17T05:58:54;11.50;99.90
957;DHT22;465;48.802;9.224;2022-09-17T06:01:21;11.60;99.90
957;DHT22;465;48.802;9.224;2022-09-17T06:03:48;11.60;99.90
957;DHT22;465;48.802;9.224;2022-09-17T06:06:15;11.80;99.90
957;DHT22;465;48.802;9.224;2022-09-17T06:08:41;12.00;99.90
957;DHT22;465;48.802;9.224;2022-09-17T06:11:08;12.20;99.90
957;DHT22;465;48.802;9.224;2022-09-17T06:13:36;12.30;99.90
957;DHT22;465;48.802;9.224;2022-09-17T06:16:04;12.50;99.90
957;DHT22;465;48.802;9.224;2022-09-17T06:18:31;12.60;99.90
957;DHT22;465;48.802;9.224;2022-09-17T06:20:59;12.60;99.90
957;DHT22;465;48.802;9.224;2022-09-17T06:23:27;12.60;99.90
957;DHT22;465;48.802;9.224;2022-09-17T06:25:55;12.60;99.90
957;DHT22;465;48.802;9.224;2022-09-17T06:28:22;12.60;99.90
957;DHT22;465;48.802;9.224;2022-09-17T06:30:51;12.60;99.90
957;DHT22;465;48.802;9.224;2022-09-17T06:33:19;12.60;99.90
957;DHT22;465;48.802;9.224;2022-09-17T06:35:45;12.70;99.90
957;DHT22;465;48.802;9.224;2022-09-17T06:38:12;12.70;99.90
957;DHT22;465;48.802;9.224;2022-09-17T06:40:39;12.80;99.90
957;DHT22;465;48.802;9.224;2022-09-17T06:43:06;12.80;99.90
957;DHT22;465;48.802;9.224;2022-09-17T06:45:33;12.80;99.90
957;DHT22;465;48.802;9.224;2022-09-17T06:48:04;12.80;99.90
957;DHT22;465;48.802;9.224;2022-09-17T06:50:31;12.90;99.90
957;DHT22;465;48.802;9.224;2022-09-17T06:52:58;12.80;99.90
957;DHT22;465;48.802;9.224;2022-09-17T06:55:24;12.90;99.90
957;DHT22;465;48.802;9.224;2022-09-17T06:57:52;12.90;99.90
957;DHT22;465;48.802;9.224;2022-09-17T07:00:19;12.80;99.90
957;DHT22;465;48.802;9.224;2022-09-17T07:02:54;12.80;99.90
957;DHT22;465;48.802;9.224;2022-09-17T07:05:23;12.80;99.90
957;DHT22;465;48.802;9.224;2022-09-17T07:07:50;12.80;99.90
957;DHT22;465;48.802;9.224;2022-09-17T07:10:17;12.70;99.90
957;DHT22;465;48.802;9.224;2022-09-17T07:12:43;12.70;99.90
957;DHT22;465;48.802;9.224;2022-09-17T07:15:10;12.70;99.90
957;DHT22;465;48.802;9.224;2022-09-17T07:17:38;12.70;99.90
957;DHT22;465;48.802;9.224;2022-09-17T07:20:06;12.70;99.90
957;DHT22;465;48.802;9.224;2022-09-17T07:22:34;12.70;99.90
957;DHT22;465;48.802;9.224;2022-09-17T07:25:01;12.70;99.90
957;DHT22;465;48.802;9.224;2022-09-17T07:27:29;12.60;99.90
957;DHT22;465;48.802;9.224;2022-09-17T07:29:56;12.60;99.90
957;DHT22;465;48.802;9.224;2022-09-17T07:32:23;12.50;99.90
957;DHT22;465;48.802;9.224;2022-09-17T07:34:50;12.50;99.90
957;DHT22;465;48.802;9.224;2022-09-17T07:37:17;12.30;99.90
957;DHT22;465;48.802;9.224;2022-09-17T07:39:47;12.20;99.90
957;DHT22;465;48.802;9.224;2022-09-17T07:42:13;12.20;99.90
957;DHT22;465;48.802;9.224;2022-09-17T07:44:40;12.20;99.90
957;DHT22;465;48.802;9.224;2022-09-17T07:47:07;12.10;99.90
957;DHT22;465;48.802;9.224;2022-09-17T07:49:34;12.10;99.90
957;DHT22;465;48.802;9.224;2022-09-17T07:52:01;12.10;99.90
957;DHT22;465;48.802;9.224;2022-09-17T07:54:30;12.00;99.90
957;DHT22;465;48.802;9.224;2022-09-17T07:56:59;12.00;99.90
957;DHT22;465;48.802;9.224;2022-09-17T07:59:26;11.90;99.90
957;DHT22;465;48.802;9.224;2022-09-17T08:01:53;11.80;99.90
957;DHT22;465;48.802;9.224;2022-09-17T08:04:20;11.80;99.90
957;DHT22;465;48.802;9.224;2022-09-17T08:06:46;11.90;99.90
957;DHT22;465;48.802;9.224;2022-09-17T08:09:14;12.10;99.90
957;DHT22;465;48.802;9.224;2022-09-17T08:11:41;12.30;99.90
957;DHT22;465;48.802;9.224;2022-09-17T08:14:11;12.40;99.90
957;DHT22;465;48.802;9.224;2022-09-17T08:16:38;12.40;99.90
957;DHT22;465;48.802;9.224;2022-09-17T08:19:05;12.40;99.90
957;DHT22;465;48.802;9.224;2022-09-17T08:21:33;12.40;99.90
957;DHT22;465;48.802;9.224;2022-09-17T08:24:00;12.40;99.90
957;DHT22;465;48.802;9.224;2022-09-17T08:26:27;12.40;99.90
957;DHT22;465;48.802;9.224;2022-09-17T08:28:54;12.50;99.90
957;DHT22;465;48.802;9.224;2022-09-17T08:31:25;12.60;99.90
957;DHT22;465;48.802;9.224;2022-09-17T08:33:53;12.60;99.90
957;DHT22;465;48.802;9.224;2022-09-17T08:36:20;12.70;99.90
957;DHT22;465;48.802;9.224;2022-09-17T08:38:50;13.00;99.90
957;DHT22;465;48.802;9.224;2022-09-17T08:41:23;13.20;99.90
957;DHT22;465;48.802;9.224;2022-09-17T08:44:06;13.40;99.90
957;DHT22;465;48.802;9.224;2022-09-17T08:46:41;13.60;99.90
957;DHT22;465;48.802;9.224;2022-09-17T08:49:12;13.60;99.90
957;DHT22;465;48.802;9.224;2022-09-17T08:51:46;13.70;99.90
957;DHT22;465;48.802;9.224;2022-09-17T08:54:18;13.80;99.90
957;DHT22;465;48.802;9.224;2022-09-17T08:56:47;14.10;99.90
957;DHT22;465;48.802;9.224;2022-09-17T08:59:21;14.60;99.90
957;DHT22;465;48.802;9.224;2022-09-17T09:01:57;15.00;99.90
957;DHT22;465;48.802;9.224;2022-09-17T09:04:40;15.50;99.90
957;DHT22;465;48.802;9.224;2022-09-17T09:07:12;16.20;99.90
957;DHT22;465;48.802;9.224;2022-09-17T09:09:46;16.40;99.90
957;DHT22;465;48.802;9.224;2022-09-17T09:12:20;16.20;99.90
957;DHT22;465;48.802;9.224;2022-09-17T09:14:53;16.00;99.90
957;DHT22;465;48.802;9.224;2022-09-17T09:17:26;16.00;99.90
957;DHT22;465;48.802;9.224;2022-09-17T09:19:53;15.80;99.90
957;DHT22;465;48.802;9.224;2022-09-17T09:22:39;15.70;99.90
957;DHT22;465;48.802;9.224;2022-09-17T09:25:17;15.40;99.90
957;DHT22;465;48.802;9.224;2022-09-17T09:28:00;15.10;99.90
957;DHT22;465;48.802;9.224;2022-09-17T09:30:36;15.10;99.90
957;DHT22;465;48.802;9.224;2022-09-17T09:33:12;15.00;99.90
957;DHT22;465;48.802;9.224;2022-09-17T09:35:41;15.00;99.90
957;DHT22;465;48.802;9.224;2022-09-17T09:38:15;15.10;99.90
957;DHT22;465;48.802;9.224;2022-09-17T09:40:47;15.10;99.90
957;DHT22;465;48.802;9.224;2022-09-17T09:43:20;15.30;99.90
957;DHT22;465;48.802;9.224;2022-09-17T09:48:49;15.50;99.90
957;DHT22;465;48.802;9.224;2022-09-17T09:51:27;15.60;99.90
957;DHT22;465;48.802;9.224;2022-09-17T09:54:09;15.90;99.90
957;DHT22;465;48.802;9.224;2022-09-17T09:56:51;16.50;99.90
957;DHT22;465;48.802;9.224;2022-09-17T09:59:19;16.90;99.50
957;DHT22;465;48.802;9.224;2022-09-17T10:01:46;16.60;99.10
957;DHT22;465;48.802;9.224;2022-09-17T10:04:18;16.30;99.80
957;DHT22;465;48.802;9.224;2022-09-17T10:06:45;16.20;99.90
957;DHT22;465;48.802;9.224;2022-09-17T10:09:13;16.20;99.90
957;DHT22;465;48.802;9.224;2022-09-17T10:11:42;16.10;99.60
957;DHT22;465;48.802;9.224;2022-09-17T10:14:26;16.10;99.30
957;DHT22;465;48.802;9.224;2022-09-17T10:17:15;16.10;99.00
957;DHT22;465;48.802;9.224;2022-09-17T10:19:44;16.10;99.10
957;DHT22;465;48.802;9.224;2022-09-17T10:22:26;16.10;99.20
957;DHT22;465;48.802;9.224;2022-09-17T10:24:55;15.90;99.30
957;DHT22;465;48.802;9.224;2022-09-17T10:27:23;15.90;99.00
957;DHT22;465;48.802;9.224;2022-09-17T10:29:57;16.60;98.70
957;DHT22;465;48.802;9.224;2022-09-17T10:32:26;18.60;96.40
957;DHT22;465;48.802;9.224;2022-09-17T10:35:01;21.90;89.40
957;DHT22;465;48.802;9.224;2022-09-17T10:37:35;23.90;76.10
957;DHT22;465;48.802;9.224;2022-09-17T10:40:25;22.80;72.50
957;DHT22;465;48.802;9.224;2022-09-17T10:43:21;21.60;74.70
957;DHT22;465;48.802;9.224;2022-09-17T10:45:56;23.40;73.30
957;DHT22;465;48.802;9.224;2022-09-17T10:48:25;25.10;65.50
957;DHT22;465;48.802;9.224;2022-09-17T10:50:57;25.00;63.90
957;DHT22;465;48.802;9.224;2022-09-17T10:53:27;24.60;63.00
957;DHT22;465;48.802;9.224;2022-09-17T10:56:02;25.90;62.90
957;DHT22;465;48.802;9.224;2022-09-17T10:58:43;27.00;57.20
957;DHT22;465;48.802;9.224;2022-09-17T11:01:27;27.10;55.30
957;DHT22;465;48.802;9.224;2022-09-17T11:04:20;25.70;56.00
957;DHT22;465;48.802;9.224;2022-09-17T11:07:31;23.50;57.50
957;DHT22;465;48.802;9.224;2022-09-17T11:10:05;21.90;61.40
957;DHT22;465;48.802;9.224;2022-09-17T11:12:45;20.90;65.10
957;DHT22;465;48.802;9.224;2022-09-17T11:15:26;21.80;65.30
957;DHT22;465;48.802;9.224;2022-09-17T11:18:26;23.60;61.50
957;DHT22;465;48.802;9.224;2022-09-17T11:21:27;23.60;59.20
957;DHT22;465;48.802;9.224;2022-09-17T11:24:17;25.40;57.80
957;DHT22;465;48.802;9.224;2022-09-17T11:26:53;26.60;54.90
957;DHT22;465;48.802;9.224;2022-09-17T11:29:42;25.10;54.60
957;DHT22;465;48.802;9.224;2022-09-17T11:32:27;23.20;56.80
957;DHT22;465;48.802;9.224;2022-09-17T11:34:59;22.10;59.00
957;DHT22;465;48.802;9.224;2022-09-17T11:37:32;23.00;58.90
957;DHT22;465;48.802;9.224;2022-09-17T11:40:11;23.50;57.40
957;DHT22;465;48.802;9.224;2022-09-17T11:42:43;23.40;57.50
957;DHT22;465;48.802;9.224;2022-09-17T11:45:16;22.60;58.00
957;DHT22;465;48.802;9.224;2022-09-17T11:47:47;22.70;58.80
957;DHT22;465;48.802;9.224;2022-09-17T11:50:19;23.40;58.00
957;DHT22;465;48.802;9.224;2022-09-17T11:52:57;22.70;58.50
957;DHT22;465;48.802;9.224;2022-09-17T11:55:31;22.60;58.80
957;DHT22;465;48.802;9.224;2022-09-17T11:58:02;23.80;57.40
957;DHT22;465;48.802;9.224;2022-09-17T12:00:35;24.00;55.60
957;DHT22;465;48.802;9.224;2022-09-17T12:03:15;23.40;56.00
957;DHT22;465;48.802;9.224;2022-09-17T12:05:47;22.10;57.30
957;DHT22;465;48.802;9.224;2022-09-17T12:08:19;21.30;60.50
957;DHT22;465;48.802;9.224;2022-09-17T12:10:51;20.60;62.90
957;DHT22;465;48.802;9.224;2022-09-17T12:13:30;20.00;65.60
957;DHT22;465;48.802;9.224;2022-09-17T12:16:07;19.70;65.60
957;DHT22;465;48.802;9.224;2022-09-17T12:18:55;19.40;65.60
957;DHT22;465;48.802;9.224;2022-09-17T12:21:28;18.90;67.80
957;DHT22;465;48.802;9.224;2022-09-17T12:23:59;18.30;77.00
957;DHT22;465;48.802;9.224;2022-09-17T12:27:05;17.50;82.20
957;DHT22;465;48.802;9.224;2022-09-17T12:29:53;17.00;89.20
957;DHT22;465;48.802;9.224;2022-09-17T12:35:24;16.30;96.30
957;DHT22;465;48.802;9.224;2022-09-17T12:38:05;15.50;99.90
957;DHT22;465;48.802;9.224;2022-09-17T12:40:38;15.30;99.90
957;DHT22;465;48.802;9.224;2022-09-17T12:43:29;15.90;99.90
957;DHT22;465;48.802;9.224;2022-09-17T12:46:22;17.00;99.90
957;DHT22;465;48.802;9.224;2022-09-17T12:51:54;16.70;99.90
957;DHT22;465;48.802;9.224;2022-09-17T12:54:55;16.30;99.90
957;DHT22;465;48.802;9.224;2022-09-17T12:57:36;16.10;99.90
957;DHT22;465;48.802;9.224;2022-09-17T13:00:11;17.10;99.90
957;DHT22;465;48.802;9.224;2022-09-17T13:02:42;17.50;99.90
957;DHT22;465;48.802;9.224;2022-09-17T13:08:28;16.90;98.80
957;DHT22;465;48.802;9.224;2022-09-17T13:11:24;16.50;99.00
957;DHT22;465;48.802;9.224;2022-09-17T13:13:57;16.20;98.80
957;DHT22;465;48.802;9.224;2022-09-17T13:16:34;15.90;99.90
957;DHT22;465;48.802;9.224;2022-09-17T13:19:08;15.90;99.90
957;DHT22;465;48.802;9.224;2022-09-17T13:21:41;15.70;99.90
957;DHT22;465;48.802;9.224;2022-09-17T13:24:17;15.80;99.90
957;DHT22;465;48.802;9.224;2022-09-17T13:26:45;15.90;99.90
957;DHT22;465;48.802;9.224;2022-09-17T13:29:12;16.00;99.90
957;DHT22;465;48.802;9.224;2022-09-17T13:32:00;16.20;99.90
957;DHT22;465;48.802;9.224;2022-09-17T13:34:29;16.40;99.90
957;DHT22;465;48.802;9.224;2022-09-17T13:36:57;16.10;99.80
957;DHT22;465;48.802;9.224;2022-09-17T13:39:43;16.20;99.50
957;DHT22;465;48.802;9.224;2022-09-17T13:42:18;16.20;99.40
957;DHT22;465;48.802;9.224;2022-09-17T13:44:49;16.50;99.50
957;DHT22;465;48.802;9.224;2022-09-17T13:47:24;16.70;99.80
957;DHT22;465;48.802;9.224;2022-09-17T13:49:54;16.70;99.60
957;DHT22;465;48.802;9.224;2022-09-17T13:52:38;16.90;99.50
957;DHT22;465;48.802;9.224;2022-09-17T13:55:07;16.90;98.10
957;DHT22;465;48.802;9.224;2022-09-17T13:57:45;16.90;99.00
957;DHT22;465;48.802;9.224;2022-09-17T14:00:52;16.70;98.70
957;DHT22;465;48.802;9.224;2022-09-17T14:03:54;16.60;99.00
957;DHT22;465;48.802;9.224;2022-09-17T14:06:47;16.60;99.30
957;DHT22;465;48.802;9.224;2022-09-17T14:09:48;16.80;98.60
957;DHT22;465;48.802;9.224;2022-09-17T14:12:54;16.90;98.70
957;DHT22;465;48.802;9.224;2022-09-17T14:15:57;16.70;97.40
957;DHT22;465;48.802;9.224;2022-09-17T14:18:37;16.50;98.30
957;DHT22;465;48.802;9.224;2022-09-17T14:21:14;17.20;98.20
957;DHT22;465;48.802;9.224;2022-09-17T14:23:45;17.80;96.70
957;DHT22;465;48.802;9.224;2022-09-17T14:26:23;18.00;95.50
957;DHT22;465;48.802;9.224;2022-09-17T14:28:57;17.90;95.00
957;DHT22;465;48.802;9.224;2022-09-17T14:31:32;17.70;94.80
957;DHT22;465;48.802;9.224;2022-09-17T14:34:02;17.50;94.40
957;DHT22;465;48.802;9.224;2022-09-17T14:36:33;17.40;94.20
957;DHT22;465;48.802;9.224;2022-09-17T14:39:02;17.60;93.80
957;DHT22;465;48.802;9.224;2022-09-17T14:41:33;17.80;93.50
957;DHT22;465;48.802;9.224;2022-09-17T14:44:02;18.00;93.30
957;DHT22;465;48.802;9.224;2022-09-17T14:46:32;17.30;92.50
957;DHT22;465;48.802;9.224;2022-09-17T14:49:12;17.00;94.10
957;DHT22;465;48.802;9.224;2022-09-17T14:51:41;17.10;94.80
957;DHT22;465;48.802;9.224;2022-09-17T14:54:21;17.00;94.10
957;DHT22;465;48.802;9.224;2022-09-17T14:56:57;16.90;94.30
957;DHT22;465;48.802;9.224;2022-09-17T14:59:40;16.90;94.80
957;DHT22;465;48.802;9.224;2022-09-17T15:02:31;16.70;94.80
957;DHT22;465;48.802;9.224;2022-09-17T15:04:59;16.90;95.50
957;DHT22;465;48.802;9.224;2022-09-17T15:07:27;17.40;94.20
957;DHT22;465;48.802;9.224;2022-09-17T15:10:05;17.40;93.90
957;DHT22;465;48.802;9.224;2022-09-17T15:12:32;17.50;94.30
957;DHT22;465;48.802;9.224;2022-09-17T15:15:00;17.40;93.70
957;DHT22;465;48.802;9.224;2022-09-17T15:17:27;17.60;93.30
957;DHT22;465;48.802;9.224;2022-09-17T15:19:56;17.70;93.30
957;DHT22;465;48.802;9.224;2022-09-17T15:22:34;17.30;93.40
957;DHT22;465;48.802;9.224;2022-09-17T15:25:14;17.00;94.00
957;DHT22;465;48.802;9.224;2022-09-17T15:27:44;16.80;94.30
957;DHT22;465;48.802;9.224;2022-09-17T15:30:15;16.70;94.80
957;DHT22;465;48.802;9.224;2022-09-17T15:32:48;16.40;95.50
957;DHT22;465;48.802;9.224;2022-09-17T15:35:24;16.20;95.60
957;DHT22;465;48.802;9.224;2022-09-17T15:37:55;16.10;96.30
957;DHT22;465;48.802;9.224;2022-09-17T15:40:28;16.10;96.30
957;DHT22;465;48.802;9.224;2022-09-17T15:43:03;15.90;95.90
957;DHT22;465;48.802;9.224;2022-09-17T15:45:34;16.10;96.00
957;DHT22;465;48.802;9.224;2022-09-17T15:48:21;16.30;95.80
957;DHT22;465;48.802;9.224;2022-09-17T15:50:51;16.40;95.10
957;DHT22;465;48.802;9.224;2022-09-17T15:53:28;16.20;95.20
957;DHT22;465;48.802;9.224;2022-09-17T15:56:16;16.10;95.70
957;DHT22;465;48.802;9.224;2022-09-17T15:58:55;16.00;95.90
957;DHT22;465;48.802;9.224;2022-09-17T16:01:52;16.10;96.60
957;DHT22;465;48.802;9.224;2022-09-17T16:04:35;16.20;96.00
957;DHT22;465;48.802;9.224;2022-09-17T16:07:31;16.10;96.70
957;DHT22;465;48.802;9.224;2022-09-17T16:10:20;15.80;96.80
957;DHT22;465;48.802;9.224;2022-09-17T16:13:03;15.60;97.60
957;DHT22;465;48.802;9.224;2022-09-17T16:18:54;15.30;98.40
957;DHT22;465;48.802;9.224;2022-09-17T16:21:23;15.20;97.80
957;DHT22;465;48.802;9.224;2022-09-17T16:24:04;15.20;97.70
957;DHT22;465;48.802;9.224;2022-09-17T16:26:43;15.30;97.00
957;DHT22;465;48.802;9.224;2022-09-17T16:29:43;15.40;96.60
957;DHT22;465;48.802;9.224;2022-09-17T16:32:11;15.40;96.20
957;DHT22;465;48.802;9.224;2022-09-17T16:34:38;15.50;96.10
957;DHT22;465;48.802;9.224;2022-09-17T16:37:05;15.60;95.70
957;DHT22;465;48.802;9.224;2022-09-17T16:39:32;15.70;95.60
957;DHT22;465;48.802;9.224;2022-09-17T16:42:00;15.70;95.70
957;DHT22;465;48.802;9.224;2022-09-17T16:44:27;15.80;96.10
957;DHT22;465;48.802;9.224;2022-09-17T16:46:54;15.60;96.30
957;DHT22;465;48.802;9.224;2022-09-17T16:49:20;15.60;96.50
957;DHT22;465;48.802;9.224;2022-09-17T16:51:48;15.50;96.60
957;DHT22;465;48.802;9.224;2022-09-17T16:54:19;15.50;96.80
957;DHT22;465;48.802;9.224;2022-09-17T16:56:46;15.50;97.00
957;DHT22;465;48.802;9.224;2022-09-17T17:12:33;15.20;98.10
957;DHT22;465;48.802;9.224;2022-09-17T17:15:01;15.20;98.10
957;DHT22;465;48.802;9.224;2022-09-17T17:17:30;15.10;99.90
957;DHT22;465;48.802;9.224;2022-09-17T17:20:04;14.70;99.90
957;DHT22;465;48.802;9.224;2022-09-17T17:22:37;14.00;99.90
957;DHT22;465;48.802;9.224;2022-09-17T17:25:07;13.60;99.90
957;DHT22;465;48.802;9.224;2022-09-17T17:27:35;13.30;99.90
957;DHT22;465;48.802;9.224;2022-09-17T17:30:07;13.10;99.90
957;DHT22;465;48.802;9.224;2022-09-17T17:32:41;12.90;99.90
957;DHT22;465;48.802;9.224;2022-09-17T17:35:10;12.80;99.90
957;DHT22;465;48.802;9.224;2022-09-17T17:37:37;12.80;99.90
957;DHT22;465;48.802;9.224;2022-09-17T17:40:04;12.70;99.90
957;DHT22;465;48.802;9.224;2022-09-17T17:42:31;12.70;99.90
957;DHT22;465;48.802;9.224;2022-09-17T17:45:06;12.60;99.90
957;DHT22;465;48.802;9.224;2022-09-17T17:47:33;12.60;99.90